Time;durP1;ratioP1;P1;durP2;ratioP2;P2;SDS_P1;SDS_P2;PMS_P1;PMS_P2;Temp;Humidity;BMP_temperature;BMP_pressure;BME280_temperature;BME280_humidity;BME280_pressure;Samples;Min_cycle;Max_cycle;Signal;HPM_P1;HPM_P2
2024/02/22 00:01:47;;;;;;;0.00;0.00;;;;;;;7.46;100.00;98488.03;6222860;23;19997;-80
2024/02/22 00:04:12;;;;;;;0.00;0.00;;;;;;;7.41;100.00;98490.81;6219810;23;20104;-80
2024/02/22 00:06:40;;;;;;;0.00;0.00;;;;;;;7.45;100.00;98491.84;6222187;23;20322;-81
2024/02/22 00:09:09;;;;;;;0.00;0.00;;;;;;;7.60;100.00;98503.63;6219709;23;20016;-81
2024/02/22 00:11:34;;;;;;;0.00;0.00;;;;;;;7.45;100.00;98470.09;6221941;23;20003;-81
2024/02/22 00:14:00;;;;;;;0.00;0.00;;;;;;;7.46;100.00;98447.25;6193011;23;20008;-80
2024/02/22 00:16:25;;;;;;;0.00;0.00;;;;;;;7.56;100.00;98468.03;6193620;23;20095;-80
2024/02/22 00:18:51;;;;;;;0.00;0.00;;;;;;;7.61;100.00;98478.06;6227976;23;20004;-77
2024/02/22 00:21:20;;;;;;;0.00;0.00;;;;;;;7.47;100.00;98446.13;6216537;23;20035;-79
2024/02/22 00:23:45;;;;;;;0.00;0.00;;;;;;;7.53;100.00;98470.53;6195960;23;20004;-78
2024/02/22 00:26:12;;;;;;;0.00;0.00;;;;;;;7.46;100.00;98465.47;6217450;23;20046;-78
2024/02/22 00:28:38;;;;;;;0.00;0.00;;;;;;;7.45;100.00;98461.94;6247224;23;20000;-78
2024/02/22 00:31:03;;;;;;;0.00;0.00;;;;;;;7.53;100.00;98476.00;6247312;23;20049;-78
2024/02/22 00:33:29;;;;;;;0.00;0.00;;;;;;;7.49;100.00;98459.44;6215421;23;20031;-78
2024/02/22 00:35:57;;;;;;;0.00;0.00;;;;;;;7.51;100.00;98468.91;6219946;23;20415;-78
2024/02/22 00:38:26;;;;;;;0.00;0.00;;;;;;;7.50;100.00;98461.88;6216301;23;20024;-78
2024/02/22 00:40:56;;;;;;;0.00;0.00;;;;;;;7.51;100.00;98466.19;6219469;23;20389;-79
2024/02/22 00:46:44;;;;;;;0.00;0.00;;;;;;;7.54;100.00;98434.88;6223318;23;20354;-80
2024/02/22 00:49:37;;;;;;;0.00;0.00;;;;;;;7.59;100.00;98425.84;6197121;23;20007;-79
2024/02/22 00:52:08;;;;;;;0.00;0.00;;;;;;;7.61;100.00;98402.69;6218102;23;20047;-78
2024/02/22 00:54:33;;;;;;;0.00;0.00;;;;;;;7.48;100.00;98382.47;6213119;23;20008;-79
2024/02/22 00:56:59;;;;;;;0.00;0.00;;;;;;;7.76;100.00;98422.59;6213601;23;20004;-79
2024/02/22 00:59:31;;;;;;;0.10;0.10;;;;;;;7.69;100.00;98398.47;6212031;23;20013;-78
2024/02/22 01:01:57;;;;;;;0.00;0.00;;;;;;;7.72;100.00;98381.56;6214449;23;20032;-78
2024/02/22 01:04:22;;;;;;;0.10;0.10;;;;;;;7.81;100.00;98403.47;6212896;23;20009;-78
2024/02/22 01:06:48;;;;;;;0.00;0.00;;;;;;;7.69;100.00;98382.16;6213884;23;20015;-78
2024/02/22 01:09:15;;;;;;;0.00;0.00;;;;;;;7.80;100.00;98394.50;6161691;23;20355;-78
2024/02/22 01:11:41;;;;;;;0.00;0.00;;;;;;;7.66;100.00;98366.44;6188869;23;20012;-79
2024/02/22 01:14:06;;;;;;;0.00;0.00;;;;;;;7.64;100.00;98360.50;6242121;23;20056;-79
2024/02/22 01:16:34;;;;;;;0.10;0.10;;;;;;;7.69;100.00;98372.09;6213214;23;20009;-78
2024/02/22 01:18:59;;;;;;;0.00;0.00;;;;;;;7.71;100.00;98369.09;6192991;23;20055;-77
2024/02/22 01:21:33;;;;;;;0.00;0.00;;;;;;;7.61;100.00;98352.94;6214646;23;20012;-79
2024/02/22 01:23:58;;;;;;;0.00;0.00;;;;;;;7.57;100.00;98335.59;6218424;23;20004;-80
2024/02/22 01:26:27;;;;;;;0.10;0.10;;;;;;;7.71;100.00;98363.63;6218861;23;20335;-79
2024/02/22 01:29:15;;;;;;;0.00;0.00;;;;;;;7.73;100.00;98366.84;6217968;23;20039;-79
2024/02/22 01:31:42;;;;;;;0.00;0.00;;;;;;;7.55;100.00;98322.28;6213330;23;20359;-77
2024/02/22 01:34:10;;;;;;;0.00;0.00;;;;;;;7.69;100.00;98317.69;6220362;23;20003;-79
2024/02/22 01:36:36;;;;;;;0.00;0.00;;;;;;;8.06;100.00;98357.84;6216109;23;20010;-78
2024/02/22 01:39:04;;;;;;;0.00;0.00;;;;;;;7.96;100.00;98326.22;6217604;23;20080;-79
2024/02/22 01:41:40;;;;;;;0.00;0.00;;;;;;;8.16;100.00;98350.34;6218104;23;20001;-78
2024/02/22 01:44:16;;;;;;;;;;;;;;;;;;;;;
2024/02/22 01:46:42;;;;;;;0.00;0.00;;;;;;;8.24;100.00;98320.78;6249525;23;20051;-79
2024/02/22 01:49:07;;;;;;;0.00;0.00;;;;;;;8.35;100.00;98324.91;6195672;23;20047;-78
2024/02/22 01:51:36;;;;;;;0.08;0.08;;;;;;;8.35;100.00;98306.69;6220743;23;20001;-79
2024/02/22 01:54:12;;;;;;;;;;;;;;;;;;;;;
2024/02/22 01:56:41;;;;;;;0.00;0.00;;;;;;;8.66;100.00;98316.97;6250535;23;20019;-78
2024/02/22 01:59:07;;;;;;;0.00;0.00;;;;;;;8.71;100.00;98307.88;6244385;23;20008;-78
2024/02/22 02:01:34;;;;;;;0.00;0.00;;;;;;;8.82;100.00;98303.81;6193578;23;20004;-79
2024/02/22 02:03:59;;;;;;;0.00;0.00;;;;;;;8.96;100.00;98305.69;6241822;23;20014;-79
2024/02/22 02:06:25;;;;;;;0.00;0.00;;;;;;;8.95;100.00;98268.66;6216609;23;20487;-80
2024/02/22 02:08:51;;;;;;;0.03;0.03;;;;;;;9.03;100.00;98259.75;6188144;23;20015;-78
2024/02/22 02:11:19;;;;;;;0.00;0.00;;;;;;;9.09;100.00;98247.59;6192293;23;20008;-79
2024/02/22 02:13:47;;;;;;;0.10;0.10;;;;;;;9.22;100.00;98241.28;6215556;23;20039;-79
2024/02/22 02:16:15;;;;;;;0.03;0.03;;;;;;;9.12;100.00;98219.72;6192532;23;20008;-80
2024/02/22 02:18:40;;;;;;;0.00;0.00;;;;;;;9.28;100.00;98238.44;6245743;23;20004;-79
2024/02/22 02:21:18;;;;;;;0.00;0.00;;;;;;;9.34;100.00;98237.19;6216327;23;20031;-79
2024/02/22 02:23:58;;;;;;;0.00;0.00;;;;;;;9.35;100.00;98233.34;6217329;23;20055;-80
2024/02/22 02:26:26;;;;;;;0.00;0.00;;;;;;;9.33;100.00;98213.75;6211991;23;20004;-81
2024/02/22 02:29:21;;;;;;;0.00;0.00;;;;;;;9.32;100.00;98184.88;6215283;23;20012;-79
2024/02/22 02:31:46;;;;;;;0.00;0.00;;;;;;;9.31;100.00;98177.81;6232079;23;20004;-80
2024/02/22 02:34:47;;;;;;;0.00;0.00;;;;;;;9.38;100.00;98183.63;6248894;23;20018;-80
2024/02/22 02:37:10;;;;;;;0.00;0.00;;;;;;;9.37;100.00;98176.53;6211026;23;20012;-79
2024/02/22 02:40:02;;;;;;;0.00;0.00;;;;;;;9.23;100.00;98150.16;6246199;23;20008;-79
2024/02/22 02:42:31;;;;;;;0.00;0.00;;;;;;;9.01;100.00;98112.84;6201431;23;20087;-80
2024/02/22 02:45:01;;;;;;;0.00;0.00;;;;;;;8.83;100.00;98087.38;6255016;23;20075;-79
2024/02/22 02:47:27;;;;;;;0.00;0.00;;;;;;;8.70;100.00;98105.44;6218236;23;20011;-79
2024/02/22 02:49:52;;;;;;;0.00;0.00;;;;;;;8.67;100.00;98121.59;6220020;23;20084;-79
2024/02/22 02:52:18;;;;;;;0.00;0.00;;;;;;;8.63;100.00;98115.13;6219332;23;20019;-78
2024/02/22 02:54:43;;;;;;;0.00;0.00;;;;;;;8.62;100.00;98108.91;6250843;23;20007;-80
2024/02/22 02:57:08;;;;;;;0.05;0.05;;;;;;;8.54;100.00;98107.72;6194348;23;20008;-80
2024/02/22 02:59:34;;;;;;;0.00;0.00;;;;;;;8.67;100.00;98121.59;6215895;23;20003;-78
2024/02/22 03:01:59;;;;;;;0.00;0.00;;;;;;;8.51;100.00;98086.56;6239759;23;20091;-79
2024/02/22 03:04:25;;;;;;;0.00;0.00;;;;;;;8.59;100.00;98097.81;6213034;23;20423;-78
2024/02/22 03:06:50;;;;;;;0.03;0.03;;;;;;;8.60;100.00;98093.97;6213674;23;20978;-79
2024/02/22 03:09:16;;;;;;;0.00;0.00;;;;;;;8.53;100.00;98062.53;6168605;23;20016;-79
2024/02/22 03:11:41;;;;;;;0.00;0.00;;;;;;;8.69;100.00;98083.97;6215315;23;20351;-79
2024/02/22 03:14:09;;;;;;;0.00;0.00;;;;;;;8.54;100.00;98068.78;6241651;23;20030;-78
2024/02/22 03:16:42;;;;;;;0.00;0.00;;;;;;;8.41;100.00;98062.25;6216040;23;19984;-79
2024/02/22 03:19:10;;;;;;;0.00;0.00;;;;;;;8.42;100.00;98061.13;6164986;23;20012;-77
2024/02/22 03:21:38;;;;;;;0.00;0.00;;;;;;;8.46;100.00;98077.69;6190207;23;20005;-78
2024/02/22 03:24:08;;;;;;;0.00;0.00;;;;;;;8.33;100.00;98058.34;6191139;23;20012;-77
2024/02/22 03:26:34;;;;;;;0.00;0.00;;;;;;;8.23;100.00;98065.97;6214693;23;20034;-79
2024/02/22 03:29:00;;;;;;;0.00;0.00;;;;;;;8.31;100.00;98054.31;6213673;23;20008;-77
2024/02/22 03:31:28;;;;;;;0.00;0.00;;;;;;;8.51;100.00;98037.53;6190756;23;20009;-79
2024/02/22 03:34:06;;;;;;;;;;;;;;;;;;;;;
2024/02/22 03:36:41;;;;;;;0.00;0.00;;;;;;;8.56;100.00;98021.03;6219991;23;20403;-78
2024/02/22 03:39:11;;;;;;;0.00;0.00;;;;;;;8.62;100.00;98020.94;6221592;23;20043;-78
2024/02/22 03:41:58;;;;;;;0.05;0.05;;;;;;;8.77;100.00;98025.97;6211659;23;20079;-79
2024/02/22 03:44:26;;;;;;;0.00;0.00;;;;;;;8.85;100.00;97997.16;6245101;23;20710;-79
2024/02/22 03:46:51;;;;;;;0.00;0.00;;;;;;;8.77;100.00;97976.13;6192892;23;20091;-79
2024/02/22 03:49:17;;;;;;;0.00;0.00;;;;;;;8.82;100.00;97987.69;6219975;23;20312;-79
2024/02/22 03:51:43;;;;;;;0.00;0.00;;;;;;;8.85;100.00;97962.53;6191909;23;20082;-79
2024/02/22 03:54:08;;;;;;;0.00;0.00;;;;;;;8.96;100.00;97959.53;6217812;23;20431;-77
2024/02/22 03:56:37;;;;;;;0.00;0.00;;;;;;;8.97;100.00;97959.19;6214731;23;20091;-79
2024/02/22 03:59:02;;;;;;;0.00;0.00;;;;;;;9.12;100.00;97955.22;6190707;23;20012;-79
2024/02/22 04:01:28;;;;;;;0.10;0.10;;;;;;;9.16;100.00;97939.84;6198718;23;20026;-78
2024/02/22 04:03:57;;;;;;;0.00;0.00;;;;;;;9.11;100.00;97928.28;6252359;23;20015;-79
2024/02/22 04:06:28;;;;;;;0.00;0.00;;;;;;;9.05;100.00;97914.00;6225717;23;20012;-78
2024/02/22 04:09:03;;;;;;;0.00;0.00;;;;;;;9.04;100.00;97902.31;6201674;23;20036;-79
2024/02/22 04:11:28;;;;;;;0.00;0.00;;;;;;;9.20;100.00;97910.84;6228364;23;20027;-77
2024/02/22 04:14:17;;;;;;;0.00;0.00;;;;;;;9.06;100.00;97867.34;6192893;23;20036;-78
2024/02/22 04:16:45;;;;;;;0.00;0.00;;;;;;;9.03;100.00;97867.19;6218493;23;20426;-78
2024/02/22 04:19:10;;;;;;;0.00;0.00;;;;;;;9.13;100.00;97871.53;6194550;23;20146;-79
2024/02/22 04:22:00;;;;;;;0.00;0.00;;;;;;;9.18;100.00;97872.16;6210356;23;20044;-79
2024/02/22 04:24:26;;;;;;;0.10;0.10;;;;;;;9.23;100.00;97880.19;6237149;23;20001;-79
2024/02/22 04:26:53;;;;;;;0.00;0.00;;;;;;;9.23;100.00;97866.56;6214216;23;20019;-78
2024/02/22 04:29:19;;;;;;;0.10;0.10;;;;;;;9.26;100.00;97865.91;6244551;23;20071;-78
2024/02/22 04:31:47;;;;;;;0.00;0.00;;;;;;;9.22;100.00;97847.78;6188217;23;20008;-78
2024/02/22 04:34:18;;;;;;;0.00;0.00;;;;;;;9.39;100.00;97868.81;6248666;23;20000;-79
2024/02/22 04:36:43;;;;;;;0.00;0.00;;;;;;;9.29;100.00;97847.31;6246365;23;20014;-79
2024/02/22 04:39:09;;;;;;;0.00;0.00;;;;;;;9.23;100.00;97839.28;6217394;23;20032;-79
2024/02/22 04:41:38;;;;;;;0.10;0.10;;;;;;;9.41;100.00;97847.47;6188567;23;20008;-79
2024/02/22 04:44:05;;;;;;;0.00;0.00;;;;;;;9.32;100.00;97816.69;6216469;23;20444;-79
2024/02/22 04:46:32;;;;;;;0.00;0.00;;;;;;;9.20;100.00;97788.13;6215936;23;19993;-80
2024/02/22 04:49:04;;;;;;;0.00;0.00;;;;;;;9.20;100.00;97788.13;6189777;23;20009;-78
2024/02/22 04:51:33;;;;;;;0.00;0.00;;;;;;;9.28;100.00;97789.25;6215864;23;20009;-77
2024/02/22 04:54:02;;;;;;;0.00;0.00;;;;;;;9.33;100.00;97785.53;6214068;23;20000;-78
2024/02/22 04:56:38;;;;;;;;;;;;;;;;;;;;;
2024/02/22 04:59:06;;;;;;;0.00;0.00;;;;;;;9.30;100.00;97762.47;6212433;23;20087;-78
2024/02/22 05:01:39;;;;;;;0.00;0.00;;;;;;;9.31;100.00;97741.44;6211831;23;20008;-78
2024/02/22 05:04:15;;;;;;;;;;;;;;;;;;;;;
2024/02/22 05:06:41;;;;;;;0.00;0.00;;;;;;;9.25;100.00;97730.69;6243412;23;20088;-77
2024/02/22 05:09:13;;;;;;;0.10;0.10;;;;;;;9.12;100.00;97723.50;6189731;23;20008;-79
2024/02/22 05:11:51;;;;;;;0.00;0.00;;;;;;;9.02;100.00;97707.47;6243881;23;20007;-78
2024/02/22 05:14:16;;;;;;;0.00;0.00;;;;;;;9.10;100.00;97717.56;6218841;23;20027;-78
2024/02/22 05:16:45;;;;;;;0.00;0.00;;;;;;;9.04;100.00;97705.25;6243947;23;20008;-77
2024/02/22 05:19:13;;;;;;;0.00;0.00;;;;;;;8.96;100.00;97673.31;6248551;23;20012;-79
2024/02/22 05:21:40;;;;;;;0.00;0.00;;;;;;;8.77;100.00;97647.22;6213995;23;20422;-79
2024/02/22 05:24:06;;;;;;;0.00;0.00;;;;;;;8.90;100.00;97659.84;6217769;23;20005;-79
2024/02/22 05:26:34;;;;;;;0.00;0.00;;;;;;;9.05;100.00;97674.09;6217370;23;20020;-79
2024/02/22 05:29:00;;;;;;;0.00;0.00;;;;;;;9.07;100.00;97655.53;6214844;23;20540;-79
2024/02/22 05:31:28;;;;;;;0.00;0.00;;;;;;;9.00;100.00;97652.47;6189744;23;20093;-77
2024/02/22 05:33:54;;;;;;;0.10;0.10;;;;;;;9.11;100.00;97650.22;6212541;23;19989;-77
2024/02/22 05:36:21;;;;;;;0.00;0.00;;;;;;;9.12;100.00;97647.16;6219884;23;20016;-78
2024/02/22 05:38:47;;;;;;;0.00;0.00;;;;;;;9.04;100.00;97634.38;6213725;23;20074;-78
2024/02/22 05:41:14;;;;;;;0.00;0.00;;;;;;;9.09;100.00;97653.25;6241286;23;20004;-77
2024/02/22 05:43:39;;;;;;;0.10;0.10;;;;;;;8.96;100.00;97613.38;6213510;23;20000;-78
2024/02/22 05:46:05;;;;;;;0.00;0.00;;;;;;;9.03;100.00;97616.41;6213673;23;20119;-77
2024/02/22 05:48:30;;;;;;;0.00;0.00;;;;;;;9.01;100.00;97602.28;6214143;23;20008;-78
2024/02/22 05:50:56;;;;;;;0.10;0.10;;;;;;;8.99;100.00;97596.38;6214363;23;20028;-77
2024/02/22 05:53:22;;;;;;;0.00;0.00;;;;;;;8.97;100.00;97585.78;6188747;23;20031;-78
2024/02/22 05:56:04;;;;;;;0.00;0.00;;;;;;;9.12;100.00;97586.38;6235492;23;20012;-76
2024/02/22 05:58:35;;;;;;;0.00;0.00;;;;;;;9.04;100.00;97552.59;6191486;23;20004;-77
2024/02/22 06:01:18;;;;;;;;;;;;;;;;;;;;;
2024/02/22 06:03:45;;;;;;;0.00;0.00;;;;;;;9.14;100.00;97554.97;6247553;23;20052;-78
2024/02/22 06:06:11;;;;;;;0.00;0.00;;;;;;;9.04;100.00;97544.41;6247246;23;20004;-78
2024/02/22 06:08:47;;;;;;;;;;;;;;;;;;;;;
2024/02/22 06:11:24;;;;;;;0.00;0.00;;;;;;;9.22;100.00;97529.56;6247498;23;20079;-78
2024/02/22 06:13:49;;;;;;;0.00;0.00;;;;;;;9.05;100.00;97488.75;6215296;23;20020;-77
2024/02/22 06:16:15;;;;;;;0.00;0.00;;;;;;;9.12;100.00;97472.69;6221883;23;20012;-76
2024/02/22 06:18:43;;;;;;;0.00;0.00;;;;;;;9.21;100.00;97462.56;6213527;23;20423;-77
2024/02/22 06:21:10;;;;;;;0.00;0.00;;;;;;;9.13;100.00;97441.56;6217451;23;20086;-78
2024/02/22 06:23:46;;;;;;;0.05;0.05;;;;;;;9.31;100.00;97463.28;6215936;23;20331;-78
2024/02/22 06:26:19;;;;;;;0.00;0.00;;;;;;;9.17;100.00;97437.06;6219152;22;20024;-78
2024/02/22 06:28:52;;;;;;;0.00;0.00;;;;;;;9.08;100.00;97396.22;6216341;23;20787;-77
2024/02/22 06:31:19;;;;;;;0.00;0.00;;;;;;;9.23;100.00;97421.31;6221181;23;20695;-78
2024/02/22 06:33:45;;;;;;;0.00;0.00;;;;;;;9.32;100.00;97421.25;6191264;23;20011;-78
2024/02/22 06:36:12;;;;;;;0.00;0.00;;;;;;;9.30;100.00;97401.69;6194944;23;20281;-78
2024/02/22 06:38:40;;;;;;;0.00;0.00;;;;;;;9.39;100.00;97421.53;6213633;23;20039;-77
2024/02/22 06:41:06;;;;;;;0.00;0.00;;;;;;;9.32;100.00;97394.78;6218288;23;20448;-78
2024/02/22 06:43:32;;;;;;;0.00;0.00;;;;;;;9.39;100.00;97394.25;6191586;23;20091;-78
2024/02/22 06:45:57;;;;;;;0.00;0.00;;;;;;;9.32;100.00;97366.72;6216011;23;20032;-78
2024/02/22 06:48:23;;;;;;;0.00;0.00;;;;;;;9.36;100.00;97367.63;6213859;23;20019;-79
2024/02/22 06:50:50;;;;;;;0.10;0.10;;;;;;;9.33;100.00;97351.94;6188812;23;20085;-78
2024/02/22 06:53:16;;;;;;;0.00;0.00;;;;;;;9.44;100.00;97353.13;6194891;23;20035;-78
2024/02/22 06:55:43;;;;;;;0.00;0.00;;;;;;;9.49;100.00;97352.13;6213190;23;20013;-78
2024/02/22 06:58:29;;;;;;;0.00;0.00;;;;;;;9.39;100.00;97317.91;6219223;23;20015;-78
2024/02/22 07:01:09;;;;;;;0.00;0.00;;;;;;;9.27;100.00;97304.97;6217462;23;20004;-80
2024/02/22 07:03:45;;;;;;;;;;;;;;;;;;;;;
2024/02/22 07:06:12;;;;;;;0.00;0.00;;;;;;;9.35;100.00;97304.13;6247086;23;20039;-79
2024/02/22 07:08:38;;;;;;;0.00;0.00;;;;;;;9.47;100.00;97310.78;6190744;23;20005;-77
2024/02/22 07:11:11;;;;;;;0.00;0.00;;;;;;;9.43;100.00;97295.09;6167531;23;20023;-76
2024/02/22 07:13:39;;;;;;;0.00;0.00;;;;;;;9.44;100.00;97283.00;6190820;23;20005;-77
2024/02/22 07:23:02;;;;;;;;;;;;;;;;;;;;;
2024/02/22 07:25:28;;;;;;;0.00;0.00;;;;;;;9.24;100.00;97241.03;6247069;23;20490;-78
2024/02/22 07:27:54;;;;;;;0.00;0.00;;;;;;;9.35;100.00;97246.06;6192434;23;20016;-77
2024/02/22 07:30:39;;;;;;;0.00;0.00;;;;;;;9.34;100.00;97233.56;6221126;23;20000;-79
2024/02/22 07:33:05;;;;;;;0.00;0.00;;;;;;;9.35;100.00;97224.25;6191737;23;20001;-76
2024/02/22 07:35:31;;;;;;;0.00;0.00;;;;;;;9.34;100.00;97211.75;6188678;23;20005;-77
2024/02/22 07:38:06;;;;;;;;;;;;;;;;;;;;;
2024/02/22 07:40:32;;;;;;;0.00;0.00;;;;;;;9.42;100.00;97203.47;6214921;23;20084;-75
2024/02/22 07:42:58;;;;;;;0.10;0.10;;;;;;;9.39;100.00;97195.19;6214140;23;20415;-74
2024/02/22 07:45:27;;;;;;;0.10;0.10;;;;;;;9.42;100.00;97197.22;6214255;23;20005;-76
2024/02/22 07:47:53;;;;;;;0.00;0.00;;;;;;;9.46;100.00;97211.75;6165549;23;20840;-75
2024/02/22 07:50:19;;;;;;;0.00;0.00;;;;;;;9.52;100.00;97172.25;6167920;23;20012;-77
2024/02/22 07:52:44;;;;;;;0.00;0.00;;;;;;;9.44;100.00;97162.22;6213332;23;20163;-75
2024/02/22 07:55:10;;;;;;;0.00;0.00;;;;;;;9.38;100.00;97153.47;6190822;23;20005;-75
2024/02/22 07:57:36;;;;;;;0.00;0.00;;;;;;;9.45;100.00;97155.66;6189438;23;20030;-74
2024/02/22 08:00:02;;;;;;;0.10;0.10;;;;;;;9.36;100.00;97127.66;6190221;23;20260;-74
2024/02/22 08:02:27;;;;;;;0.00;0.00;;;;;;;9.53;100.00;97143.81;6187174;23;20005;-75
2024/02/22 08:04:53;;;;;;;0.00;0.00;;;;;;;9.57;100.00;97144.75;6160115;23;20004;-73
2024/02/22 08:07:18;;;;;;;0.00;0.00;;;;;;;9.61;100.00;97118.38;6190973;23;20014;-74
2024/02/22 08:09:48;;;;;;;0.00;0.00;;;;;;;9.61;100.00;97114.88;6243377;23;20011;-75
2024/02/22 08:12:15;;;;;;;0.00;0.00;;;;;;;9.46;100.00;97099.94;6217043;23;20454;-74
2024/02/22 08:14:41;;;;;;;0.00;0.00;;;;;;;9.69;100.00;97088.59;6190480;23;20054;-74
2024/02/22 08:17:16;;;;;;;0.00;0.00;;;;;;;9.69;100.00;97097.56;6187810;23;20407;-75
2024/02/22 08:19:42;;;;;;;0.00;0.00;;;;;;;9.77;100.00;97088.47;6192132;23;20188;-74
2024/02/22 08:22:13;;;;;;;0.00;0.00;;;;;;;9.77;100.00;97083.03;6191556;23;20028;-74
2024/02/22 08:24:38;;;;;;;0.00;0.00;;;;;;;9.86;100.00;97082.91;6244575;23;20008;-74
2024/02/22 08:27:04;;;;;;;0.00;0.00;;;;;;;9.88;100.00;97083.34;6212357;23;20503;-74
2024/02/22 08:29:29;;;;;;;0.00;0.00;;;;;;;9.93;100.00;97074.94;6212642;23;20005;-74
2024/02/22 08:31:55;;;;;;;0.10;0.10;;;;;;;9.85;100.00;97055.97;6186617;23;20008;-75
2024/02/22 08:34:20;;;;;;;0.00;0.00;;;;;;;10.08;100.00;97045.34;6212910;23;20488;-76
2024/02/22 08:36:46;;;;;;;0.00;0.00;;;;;;;10.05;100.00;97046.03;6187914;23;20018;-74
2024/02/22 08:39:14;;;;;;;0.00;0.00;;;;;;;10.13;100.00;97051.34;6185753;23;20438;-74
2024/02/22 08:41:39;;;;;;;0.00;0.00;;;;;;;10.29;100.00;97026.84;6189850;23;20056;-75
2024/02/22 08:44:15;;;;;;;0.00;0.00;;;;;;;10.31;100.00;97057.31;6165649;23;20008;-74
2024/02/22 08:46:40;;;;;;;0.00;0.00;;;;;;;10.45;100.00;97028.84;6216246;23;20088;-75
2024/02/22 08:49:06;;;;;;;0.08;0.08;;;;;;;10.57;100.00;97036.19;6189465;23;20008;-76
2024/02/22 08:51:32;;;;;;;0.00;0.00;;;;;;;10.48;100.00;97025.41;6215004;23;20047;-76
2024/02/22 08:53:58;;;;;;;0.00;0.00;;;;;;;10.46;100.00;97024.97;6186828;23;20008;-75
2024/02/22 08:56:26;;;;;;;0.00;0.00;;;;;;;10.37;100.00;97040.75;6215313;23;20004;-76
2024/02/22 08:58:52;;;;;;;0.00;0.00;;;;;;;10.21;100.00;97057.03;6188993;23;20001;-76
2024/02/22 09:01:20;;;;;;;0.00;0.00;;;;;;;9.49;100.00;97050.19;6218928;23;20558;-75
2024/02/22 09:03:46;;;;;;;0.00;0.00;;;;;;;9.06;100.00;97027.78;6214377;23;20001;-74
2024/02/22 09:06:11;;;;;;;0.00;0.00;;;;;;;8.65;100.00;97034.19;6241440;23;20015;-73
2024/02/22 09:08:40;;;;;;;0.00;0.00;;;;;;;8.69;100.00;97044.06;6188367;23;20008;-75
2024/02/22 09:11:05;;;;;;;0.10;0.10;;;;;;;9.00;100.00;97044.69;6191641;23;20067;-75
2024/02/22 09:13:33;;;;;;;0.00;0.00;;;;;;;9.00;100.00;97012.78;6211333;23;20013;-74
2024/02/22 09:16:01;;;;;;;0.00;0.00;;;;;;;8.90;100.00;97000.38;6188121;23;20346;-73
2024/02/22 09:18:29;;;;;;;0.00;0.00;;;;;;;8.80;100.00;97009.00;6188148;23;20040;-76
2024/02/22 09:20:59;;;;;;;0.00;0.00;;;;;;;8.84;100.00;97030.94;6166321;23;20013;-75
2024/02/22 09:23:25;;;;;;;0.00;0.00;;;;;;;8.87;100.00;97017.41;6189346;23;20008;-73
2024/02/22 09:25:52;;;;;;;0.00;0.00;;;;;;;8.91;100.00;97009.38;6216668;23;20013;-74
2024/02/22 09:28:18;;;;;;;0.00;0.00;;;;;;;9.05;100.00;97003.59;6221721;23;20008;-74
2024/02/22 09:30:43;;;;;;;0.03;0.03;;;;;;;9.01;100.00;96994.50;6213549;23;20490;-73
2024/02/22 09:33:10;;;;;;;0.00;0.00;;;;;;;9.42;100.00;97001.66;6219346;23;20000;-72
2024/02/22 09:35:44;;;;;;;0.00;0.00;;;;;;;9.54;100.00;97009.03;6215637;23;20295;-76
2024/02/22 09:38:12;;;;;;;0.00;0.00;;;;;;;9.45;100.00;96967.47;6250791;23;20015;-74
2024/02/22 09:40:38;;;;;;;0.00;0.00;;;;;;;9.49;100.00;96979.28;6215370;23;20016;-74
2024/02/22 09:43:05;;;;;;;0.00;0.00;;;;;;;9.24;100.00;96982.03;6216910;23;20450;-75
2024/02/22 09:45:32;;;;;;;0.00;0.00;;;;;;;8.89;100.00;96941.59;6213587;23;20019;-77
2024/02/22 09:47:59;;;;;;;0.00;0.00;;;;;;;8.97;100.00;96958.19;6214218;23;20091;-74
2024/02/22 09:50:26;;;;;;;0.00;0.00;;;;;;;8.86;100.00;96964.06;6214262;23;20039;-74
2024/02/22 09:52:51;;;;;;;0.00;0.00;;;;;;;8.73;100.00;96981.50;6189357;23;20079;-74
2024/02/22 09:55:20;;;;;;;0.10;0.10;;;;;;;8.60;100.00;96928.16;6218941;23;20003;-74
2024/02/22 09:57:49;;;;;;;0.10;0.10;;;;;;;8.38;100.00;96897.44;6217470;23;20088;-74
2024/02/22 10:00:15;;;;;;;0.00;0.00;;;;;;;8.38;100.00;96935.56;6244195;23;20077;-73
2024/02/22 10:02:45;;;;;;;0.00;0.00;;;;;;;8.29;100.00;96951.22;6216032;23;20032;-74
2024/02/22 10:05:12;;;;;;;0.10;0.10;;;;;;;7.99;100.00;96910.53;6218087;23;20005;-73
2024/02/22 10:07:39;;;;;;;0.00;0.00;;;;;;;7.95;100.00;96896.00;6191626;23;20533;-73
2024/02/22 10:10:05;;;;;;;0.00;0.00;;;;;;;7.93;100.00;96893.63;6189643;23;20009;-73
2024/02/22 10:12:32;;;;;;;0.00;0.00;;;;;;;7.82;100.00;96901.38;6213393;23;20005;-74
2024/02/22 10:15:08;;;;;;;0.00;0.00;;;;;;;7.82;100.00;96911.47;6240330;23;20311;-73
2024/02/22 10:17:36;;;;;;;0.00;0.00;;;;;;;7.76;100.00;96908.16;6244885;23;20082;-73
2024/02/22 10:20:06;;;;;;;0.00;0.00;;;;;;;7.75;100.00;96906.56;6212654;23;20396;-74
2024/02/22 10:22:46;;;;;;;;;;;;;;;;;;;;;
2024/02/22 10:25:14;;;;;;;0.00;0.00;;;;;;;7.63;100.00;96882.03;6216428;23;20496;-72
2024/02/22 10:27:46;;;;;;;0.00;0.00;;;;;;;7.74;100.00;96898.72;6243358;23;20008;-74
2024/02/22 10:30:23;;;;;;;;;;;;;;;;;;;;;
2024/02/22 10:33:06;;;;;;;0.00;0.00;;;;;;;7.75;100.00;96863.03;6243575;23;20618;-74
2024/02/22 10:35:34;;;;;;;0.10;0.10;;;;;;;7.89;100.00;96846.44;6209967;23;20012;-73
2024/02/22 10:38:02;;;;;;;0.00;0.00;;;;;;;7.88;100.00;96790.44;6186604;23;20651;-73
2024/02/22 10:40:31;;;;;;;0.10;0.10;;;;;;;8.13;100.00;96790.47;6211195;23;20066;-73
2024/02/22 10:43:00;;;;;;;0.00;0.00;;;;;;;8.32;100.00;96808.97;6237922;23;20002;-73
2024/02/22 10:45:25;;;;;;;0.10;0.10;;;;;;;8.21;100.00;96756.94;6186611;23;20016;-74
2024/02/22 10:48:06;;;;;;;0.00;0.00;;;;;;;8.39;100.00;96765.66;6211286;23;20333;-77
2024/02/22 10:50:43;;;;;;;0.00;0.00;;;;;;;8.39;100.00;96746.59;6220175;23;20012;-75
2024/02/22 10:53:16;;;;;;;0.10;0.10;;;;;;;8.56;100.00;96753.75;6242991;22;20016;-75
2024/02/22 10:56:03;;;;;;;0.10;0.10;;;;;;;8.82;100.00;96772.44;6189313;23;20083;-75
2024/02/22 10:58:33;;;;;;;0.10;0.10;;;;;;;8.78;100.00;96759.88;6233528;23;20000;-74
2024/02/22 11:01:02;;;;;;;0.00;0.00;;;;;;;8.93;100.00;96780.94;6246978;23;20030;-75
2024/02/22 11:03:30;;;;;;;0.10;0.10;;;;;;;8.91;100.00;96770.38;6244785;23;19992;-75
2024/02/22 11:05:55;;;;;;;0.00;0.00;;;;;;;8.98;100.00;96767.06;6166202;23;20454;-73
2024/02/22 11:08:21;;;;;;;0.00;0.00;;;;;;;9.12;100.00;96774.06;6212629;23;20079;-74
2024/02/22 11:11:10;;;;;;;0.00;0.00;;;;;;;8.88;100.00;96753.94;6216359;23;20087;-74
2024/02/22 11:13:36;;;;;;;0.00;0.00;;;;;;;8.78;100.00;96766.09;6213634;23;20009;-75
2024/02/22 11:16:17;;;;;;;0.00;0.00;;;;;;;8.58;100.00;96756.13;6193823;23;20459;-75
2024/02/22 11:18:44;;;;;;;0.00;0.00;;;;;;;8.64;100.00;96757.50;6212778;23;20018;-75
2024/02/22 11:21:19;;;;;;;0.00;0.00;;;;;;;8.52;100.00;96737.28;6220215;23;20011;-74
2024/02/22 11:23:45;;;;;;;0.00;0.00;;;;;;;8.51;100.00;96745.81;6213195;23;20075;-75
2024/02/22 11:26:11;;;;;;;0.00;0.00;;;;;;;8.55;100.00;96765.78;6243791;23;20036;-74
2024/02/22 11:28:36;;;;;;;0.00;0.00;;;;;;;8.51;100.00;96741.19;6188787;23;20009;-74
2024/02/22 11:31:11;;;;;;;0.00;0.00;;;;;;;8.59;100.00;96746.84;6166265;23;20022;-73
2024/02/22 11:33:36;;;;;;;;;;;;;;;8.65;100.00;96759.09;6212564;23;20005;-75
2024/02/22 11:36:03;;;;;;;0.00;0.00;;;;;;;8.44;100.00;96738.22;6216758;23;19919;-74
2024/02/22 11:38:28;;;;;;;0.00;0.00;;;;;;;8.45;100.00;96728.13;6163297;23;20088;-74
2024/02/22 11:40:53;;;;;;;0.00;0.00;;;;;;;8.42;100.00;96715.94;6186097;23;20032;-74
2024/02/22 11:43:26;;;;;;;0.00;0.00;;;;;;;8.49;100.00;96721.66;6194650;23;20101;-74
2024/02/22 11:45:59;;;;;;;0.00;0.00;;;;;;;8.46;100.00;96722.34;6214152;23;20008;-73
2024/02/22 11:48:25;;;;;;;0.00;0.00;;;;;;;8.32;100.00;96705.53;6234166;23;20419;-74
2024/02/22 11:51:00;;;;;;;0.00;0.00;;;;;;;8.39;100.00;96711.19;6242727;23;20004;-73
2024/02/22 11:53:25;;;;;;;0.00;0.00;;;;;;;8.37;100.00;96692.47;6247035;22;20100;-75
2024/02/22 11:55:51;;;;;;;0.00;0.00;;;;;;;8.26;100.00;96666.06;6188574;23;20024;-74
2024/02/22 11:58:21;;;;;;;0.00;0.00;;;;;;;8.32;100.00;96667.41;6218997;23;20007;-74
2024/02/22 12:00:48;;;;;;;0.10;0.10;;;;;;;8.23;100.00;96653.94;6188950;23;20321;-73
2024/02/22 12:03:17;;;;;;;0.00;0.00;;;;;;;8.15;100.00;96642.06;6243942;23;19999;-73
2024/02/22 12:05:43;;;;;;;0.10;0.10;;;;;;;8.18;100.00;96652.25;6189589;23;20075;-73
2024/02/22 12:08:11;;;;;;;0.00;0.00;;;;;;;7.96;100.00;96622.81;6241998;23;20003;-74